createdAt,value
2023-02-25T00:00:31.792Z,2.80
2023-02-25T00:02:59.034Z,2.70
2023-02-25T00:05:26.417Z,2.80
2023-02-25T00:07:54.089Z,2.80
2023-02-25T00:10:21.210Z,2.80
2023-02-25T00:12:47.783Z,2.70
2023-02-25T00:15:14.361Z,2.70
2023-02-25T00:17:41.103Z,2.70
2023-02-25T00:20:13.470Z,2.70
2023-02-25T00:22:40.339Z,2.70
2023-02-25T00:25:08.877Z,2.70
2023-02-25T00:27:35.991Z,2.80
2023-02-25T00:30:03.187Z,2.80
2023-02-25T00:32:29.853Z,2.80
2023-02-25T00:34:57.381Z,2.80
2023-02-25T00:37:24.181Z,2.80
2023-02-25T00:39:50.749Z,2.70
2023-02-25T00:42:18.641Z,2.70
2023-02-25T00:44:50.557Z,2.70
2023-02-25T00:47:19.405Z,2.70
2023-02-25T00:49:52.074Z,2.60
2023-02-25T00:52:18.957Z,2.60
2023-02-25T00:54:45.490Z,2.60
2023-02-25T00:57:12.036Z,2.60
2023-02-25T00:59:38.598Z,2.70
2023-02-25T01:02:05.309Z,2.70
2023-02-25T01:04:32.208Z,2.80
2023-02-25T01:06:59.026Z,2.80
2023-02-25T01:09:26.055Z,2.80
2023-02-25T01:11:52.917Z,2.90
2023-02-25T01:14:21.821Z,2.90
2023-02-25T01:16:49.983Z,2.90
2023-02-25T01:19:19.629Z,2.90
2023-02-25T01:21:48.684Z,3.00
2023-02-25T01:24:17.949Z,3.00
2023-02-25T01:26:46.069Z,3.00
2023-02-25T01:29:21.877Z,3.00
2023-02-25T01:31:51.782Z,3.00
2023-02-25T01:34:19.927Z,3.00
2023-02-25T01:36:47.607Z,3.00
2023-02-25T01:39:16.175Z,3.00
2023-02-25T01:41:43.425Z,3.10
2023-02-25T01:44:18.852Z,3.20
2023-02-25T01:46:47.706Z,3.30
2023-02-25T01:49:37.026Z,3.30
2023-02-25T01:52:06.062Z,3.30
2023-02-25T01:54:34.019Z,3.30
2023-02-25T01:57:00.678Z,3.30
2023-02-25T01:59:29.577Z,3.30
2023-02-25T02:01:56.587Z,3.30
2023-02-25T02:04:25.669Z,3.30
2023-02-25T02:06:55.363Z,3.30
2023-02-25T02:09:26.302Z,3.40
2023-02-25T02:11:53.082Z,3.40
2023-02-25T02:14:28.608Z,3.40
2023-02-25T02:17:30.045Z,3.50
2023-02-25T02:20:13.809Z,3.60
2023-02-25T02:22:54.411Z,3.60
2023-02-25T02:25:45.795Z,3.70
2023-02-25T02:28:33.856Z,3.80
2023-02-25T02:31:13.064Z,3.80
2023-02-25T02:34:25.988Z,3.90
2023-02-25T02:37:25.195Z,3.90
2023-02-25T02:40:17.734Z,3.90
2023-02-25T02:42:56.310Z,4.00
2023-02-25T02:45:29.842Z,4.00
2023-02-25T02:48:02.596Z,4.00
2023-02-25T02:50:35.226Z,4.10
2023-02-25T02:53:53.752Z,4.10
2023-02-25T02:56:24.170Z,4.10
2023-02-25T02:58:59.005Z,4.10
2023-02-25T03:02:06.536Z,4.20
2023-02-25T03:04:37.986Z,4.20
2023-02-25T03:07:07.810Z,4.20
2023-02-25T03:09:39.743Z,4.10
2023-02-25T03:12:06.675Z,4.10
2023-02-25T03:14:33.298Z,4.00
2023-02-25T03:17:07.159Z,4.00
2023-02-25T03:19:45.311Z,3.90
2023-02-25T03:22:15.378Z,3.90
2023-02-25T03:24:49.776Z,3.90
2023-02-25T03:27:27.663Z,3.90
2023-02-25T03:30:03.072Z,3.90
2023-02-25T03:32:32.580Z,4.00
2023-02-25T03:35:02.791Z,4.00
2023-02-25T03:37:32.388Z,4.00
2023-02-25T03:40:07.656Z,4.00
2023-02-25T03:42:35.423Z,4.00
2023-02-25T03:45:05.442Z,4.00
2023-02-25T03:47:37.082Z,4.00
2023-02-25T03:50:08.267Z,4.00
2023-02-25T03:52:35.247Z,4.00
2023-02-25T03:55:03.113Z,4.10
2023-02-25T03:57:41.751Z,4.20
2023-02-25T04:00:25.014Z,4.20
2023-02-25T04:02:52.180Z,4.20
2023-02-25T04:05:20.574Z,4.20
2023-02-25T04:07:47.846Z,4.20
2023-02-25T04:10:15.958Z,4.20
2023-02-25T04:12:42.680Z,4.30
2023-02-25T04:15:09.744Z,4.20
2023-02-25T04:17:37.042Z,4.20
2023-02-25T04:20:05.397Z,4.10
2023-02-25T04:22:33.102Z,4.00
2023-02-25T04:24:59.844Z,3.90
2023-02-25T04:27:27.173Z,3.90
2023-02-25T04:29:53.746Z,3.80
2023-02-25T04:32:20.424Z,3.80
2023-02-25T04:34:47.022Z,3.80
2023-02-25T04:37:13.834Z,3.80
2023-02-25T04:39:41.423Z,3.80
2023-02-25T04:42:08.378Z,3.80
2023-02-25T04:44:35.149Z,3.70
2023-02-25T04:47:01.768Z,3.60
2023-02-25T04:49:28.396Z,3.60
2023-02-25T04:51:54.954Z,3.50
2023-02-25T04:54:21.859Z,3.60
2023-02-25T04:56:48.567Z,3.70
2023-02-25T04:59:16.044Z,3.60
2023-02-25T05:01:43.066Z,3.70
2023-02-25T05:04:10.151Z,3.70
2023-02-25T05:06:36.788Z,3.60
2023-02-25T05:09:03.827Z,3.50
2023-02-25T05:11:30.492Z,3.50
2023-02-25T05:13:57.213Z,3.50
2023-02-25T05:16:25.001Z,3.50
2023-02-25T05:18:52.359Z,3.50
2023-02-25T05:21:23.719Z,3.50
2023-02-25T05:23:52.012Z,3.40
2023-02-25T05:26:21.922Z,3.30
2023-02-25T05:28:50.912Z,3.40
2023-02-25T05:31:18.198Z,3.30
2023-02-25T05:33:45.212Z,3.40
2023-02-25T05:36:14.854Z,3.40
2023-02-25T05:38:42.120Z,3.40
2023-02-25T05:41:09.745Z,3.30
2023-02-25T05:43:38.153Z,3.30
2023-02-25T05:46:05.381Z,3.20
2023-02-25T05:48:32.780Z,3.20
2023-02-25T05:51:05.601Z,3.10
2023-02-25T05:53:32.571Z,3.00
2023-02-25T05:55:59.223Z,2.90
2023-02-25T05:58:25.876Z,2.80
2023-02-25T06:00:53.841Z,2.80
2023-02-25T06:03:20.764Z,2.70
2023-02-25T06:05:48.116Z,2.70
2023-02-25T06:08:14.842Z,2.60
2023-02-25T06:10:41.806Z,2.50
2023-02-25T06:13:10.372Z,2.40
2023-02-25T06:15:41.586Z,2.30
2023-02-25T06:18:09.670Z,2.20
2023-02-25T06:20:36.224Z,2.10
2023-02-25T06:23:03.568Z,2.10
2023-02-25T06:25:30.777Z,2.10
2023-02-25T06:28:00.974Z,2.00
2023-02-25T06:30:28.874Z,2.00
2023-02-25T06:32:55.974Z,2.00
2023-02-25T06:35:23.268Z,2.00
2023-02-25T06:37:54.539Z,1.90
2023-02-25T06:40:21.230Z,1.90
2023-02-25T06:42:47.887Z,1.90
2023-02-25T06:45:14.597Z,2.00
2023-02-25T06:47:41.188Z,2.20
2023-02-25T06:50:08.585Z,2.30
2023-02-25T06:52:35.201Z,2.40
2023-02-25T06:55:02.003Z,2.40
2023-02-25T06:57:28.547Z,2.50
2023-02-25T06:59:55.100Z,2.60
2023-02-25T07:02:21.653Z,2.70
2023-02-25T07:04:48.286Z,2.80
2023-02-25T07:07:15.173Z,2.80
2023-02-25T07:09:41.722Z,2.80
2023-02-25T07:12:08.263Z,2.80
2023-02-25T07:14:34.869Z,2.70
2023-02-25T07:17:03.001Z,2.70
2023-02-25T07:19:29.885Z,2.70
2023-02-25T07:21:56.496Z,2.60
2023-02-25T07:24:23.287Z,2.60
2023-02-25T07:26:50.047Z,2.70
2023-02-25T07:29:16.600Z,2.80
2023-02-25T07:31:44.779Z,2.90
2023-02-25T07:34:12.528Z,3.00
2023-02-25T07:36:39.059Z,3.20
2023-02-25T07:39:08.767Z,3.40
2023-02-25T07:41:36.389Z,3.60
2023-02-25T07:44:04.875Z,3.80
2023-02-25T07:46:32.485Z,3.90
2023-02-25T07:48:59.443Z,4.00
2023-02-25T07:51:26.447Z,4.10
2023-02-25T07:53:55.503Z,4.20
2023-02-25T07:56:24.334Z,4.20
2023-02-25T07:58:51.221Z,4.10
2023-02-25T08:01:27.355Z,4.10
2023-02-25T08:03:56.777Z,4.10
2023-02-25T08:06:23.493Z,4.10
2023-02-25T08:08:55.101Z,4.00
2023-02-25T08:11:24.468Z,4.00
2023-02-25T08:13:51.286Z,4.00
2023-02-25T08:16:19.871Z,4.00
2023-02-25T08:18:47.179Z,4.00
2023-02-25T08:21:18.071Z,4.00
2023-02-25T08:23:44.928Z,4.10
2023-02-25T08:26:11.566Z,4.30
2023-02-25T08:28:39.508Z,4.50
2023-02-25T08:31:08.402Z,4.80
2023-02-25T08:33:35.193Z,5.20
2023-02-25T08:36:17.192Z,5.80
2023-02-25T08:38:44.521Z,7.20
2023-02-25T08:41:11.272Z,9.50
2023-02-25T08:43:37.948Z,9.90
2023-02-25T08:46:06.595Z,10.70
2023-02-25T08:48:34.417Z,12.50
2023-02-25T08:51:08.266Z,14.00
2023-02-25T08:53:38.492Z,15.80
2023-02-25T08:56:06.928Z,18.00
2023-02-25T08:58:33.669Z,18.80
2023-02-25T09:01:00.392Z,19.50
2023-02-25T09:03:27.310Z,20.70
2023-02-25T09:05:55.897Z,21.30
2023-02-25T09:08:22.803Z,21.10
2023-02-25T09:10:50.895Z,21.70
2023-02-25T09:13:17.727Z,22.00
2023-02-25T09:15:44.430Z,21.20
2023-02-25T09:18:11.730Z,19.50
2023-02-25T09:20:38.380Z,17.30
2023-02-25T09:23:04.942Z,14.40
2023-02-25T09:25:31.551Z,11.90
2023-02-25T09:27:58.124Z,10.00
2023-02-25T09:30:24.676Z,8.50
2023-02-25T09:32:51.636Z,7.80
2023-02-25T09:35:18.323Z,8.20
2023-02-25T09:37:44.920Z,10.40
2023-02-25T09:40:17.852Z,12.30
2023-02-25T09:42:54.345Z,13.50
2023-02-25T09:45:24.897Z,13.80
2023-02-25T09:48:01.610Z,15.00
2023-02-25T09:50:39.247Z,16.90
2023-02-25T09:53:23.024Z,18.30
2023-02-25T09:55:52.050Z,19.40
2023-02-25T09:58:37.239Z,20.40
2023-02-25T10:01:18.852Z,21.10
2023-02-25T10:03:55.259Z,21.80
2023-02-25T10:06:36.874Z,22.10
2023-02-25T10:09:40.352Z,22.10
2023-02-25T10:12:39.173Z,22.20
2023-02-25T10:15:20.986Z,22.20
2023-02-25T10:18:05.568Z,22.60
2023-02-25T10:21:19.434Z,23.10
2023-02-25T10:24:09.292Z,23.30
2023-02-25T10:26:44.896Z,23.40
2023-02-25T10:29:33.920Z,23.70
2023-02-25T10:32:14.990Z,24.10
2023-02-25T10:34:42.636Z,23.80
2023-02-25T10:37:18.966Z,23.50
2023-02-25T10:39:48.476Z,23.10
2023-02-25T10:42:16.488Z,23.10
2023-02-25T10:44:44.619Z,24.10
2023-02-25T10:47:16.639Z,24.30
2023-02-25T10:50:17.169Z,24.10
2023-02-25T10:52:55.805Z,24.00
2023-02-25T10:55:54.648Z,23.30
2023-02-25T10:58:36.727Z,23.30
2023-02-25T11:01:17.150Z,22.80
2023-02-25T11:03:53.164Z,22.00
2023-02-25T11:06:32.111Z,22.00
2023-02-25T11:09:00.680Z,22.00
2023-02-25T11:11:31.860Z,21.60
2023-02-25T11:14:09.377Z,22.30
2023-02-25T11:16:39.725Z,22.20
2023-02-25T11:19:25.225Z,21.80
2023-02-25T11:21:53.333Z,21.70
2023-02-25T11:24:31.886Z,21.90
2023-02-25T11:26:59.887Z,22.60
2023-02-25T11:29:33.284Z,22.90
2023-02-25T11:32:12.145Z,23.00
2023-02-25T11:34:51.777Z,23.50
2023-02-25T11:37:24.856Z,24.20
2023-02-25T11:39:54.187Z,23.90
2023-02-25T11:42:26.824Z,24.00
2023-02-25T11:45:04.266Z,23.80
2023-02-25T11:47:38.226Z,23.90
2023-02-25T11:50:29.395Z,24.10
2023-02-25T11:52:55.936Z,24.00
2023-02-25T11:55:52.106Z,24.00
2023-02-25T11:58:22.823Z,23.70
2023-02-25T12:01:00.380Z,23.20
2023-02-25T12:03:43.523Z,23.30
2023-02-25T12:06:48.471Z,23.80
2023-02-25T12:09:52.871Z,23.40
2023-02-25T12:12:39.626Z,22.60
2023-02-25T12:15:43.663Z,22.20
2023-02-25T12:18:13.432Z,21.90
2023-02-25T12:21:31.065Z,21.70
2023-02-25T12:24:33.292Z,21.00
2023-02-25T12:27:37.691Z,19.80
2023-02-25T12:30:22.665Z,19.90
2023-02-25T12:33:25.074Z,20.20
2023-02-25T12:35:54.689Z,20.40
2023-02-25T12:38:54.302Z,20.60
2023-02-25T12:41:46.266Z,20.80
2023-02-25T12:44:55.325Z,21.60
2023-02-25T12:47:35.134Z,21.60
2023-02-25T12:50:27.848Z,21.10
2023-02-25T12:53:16.765Z,20.70
2023-02-25T12:56:07.036Z,20.20
2023-02-25T12:59:10.574Z,19.40
2023-02-25T13:01:55.915Z,18.30
2023-02-25T13:04:41.284Z,18.30
2023-02-25T13:07:24.227Z,18.60
2023-02-25T13:10:06.397Z,17.40
2023-02-25T13:12:58.608Z,15.60
2023-02-25T13:16:01.147Z,15.00
2023-02-25T13:18:50.593Z,15.60
2023-02-25T13:21:26.672Z,15.80
2023-02-25T13:24:19.886Z,16.20
2023-02-25T13:27:18.686Z,16.30
2023-02-25T13:30:02.560Z,16.50
2023-02-25T13:32:39.471Z,15.30
2023-02-25T13:35:21.228Z,14.10
2023-02-25T13:38:04.946Z,13.00
2023-02-25T13:40:51.319Z,12.10
2023-02-25T13:43:59.048Z,12.20
2023-02-25T13:46:50.679Z,12.60
2023-02-25T13:49:35.235Z,12.90
2023-02-25T13:52:07.760Z,12.70
2023-02-25T13:54:54.597Z,12.10
2023-02-25T13:57:52.416Z,11.70
2023-02-25T14:01:00.454Z,10.80
2023-02-25T14:03:51.544Z,10.40
2023-02-25T14:06:44.542Z,10.20
2023-02-25T14:09:34.337Z,11.00
2023-02-25T14:12:18.748Z,11.50
2023-02-25T14:15:03.411Z,11.50
2023-02-25T14:17:32.969Z,11.20
2023-02-25T14:20:19.741Z,11.20
2023-02-25T14:22:55.260Z,10.90
2023-02-25T14:25:25.124Z,10.40
2023-02-25T14:27:51.663Z,9.80
2023-02-25T14:30:22.873Z,9.90
2023-02-25T14:33:27.764Z,9.80
2023-02-25T14:36:31.802Z,10.30
2023-02-25T14:39:21.549Z,11.00
2023-02-25T14:42:23.688Z,11.40
2023-02-25T14:45:06.795Z,11.30
2023-02-25T14:47:45.045Z,11.20
2023-02-25T14:50:14.553Z,11.30
2023-02-25T14:52:59.223Z,10.90
2023-02-25T14:55:52.547Z,10.20
2023-02-25T14:58:46.942Z,9.50
2023-02-25T15:01:50.731Z,9.20
2023-02-25T15:04:55.641Z,9.30
2023-02-25T15:07:28.378Z,9.00
2023-02-25T15:10:26.774Z,8.60
2023-02-25T15:13:02.704Z,8.50
2023-02-25T15:16:01.660Z,8.40
2023-02-25T15:18:50.020Z,8.50
2023-02-25T15:21:31.412Z,8.10
2023-02-25T15:23:58.272Z,7.90
2023-02-25T15:26:42.644Z,7.80
2023-02-25T15:29:44.276Z,7.60
2023-02-25T15:32:30.079Z,7.40
2023-02-25T15:35:12.139Z,7.30
2023-02-25T15:37:51.005Z,7.30
2023-02-25T15:40:18.054Z,7.30
2023-02-25T15:42:57.007Z,7.40
2023-02-25T15:45:29.738Z,7.10
2023-02-25T15:48:11.455Z,7.00
2023-02-25T15:50:45.874Z,6.70
2023-02-25T15:53:21.886Z,6.50
2023-02-25T15:56:11.280Z,6.40
2023-02-25T15:58:51.146Z,6.40
2023-02-25T16:01:39.796Z,6.30
2023-02-25T16:04:43.015Z,6.10
2023-02-25T16:07:17.088Z,5.80
2023-02-25T16:09:50.538Z,5.60
2023-02-25T16:12:18.311Z,5.50
2023-02-25T16:14:45.937Z,5.30
2023-02-25T16:17:17.508Z,5.20
2023-02-25T16:19:48.356Z,5.10
2023-02-25T16:22:22.346Z,5.00
2023-02-25T16:24:55.017Z,4.90
2023-02-25T16:27:40.267Z,4.80
2023-02-25T16:30:31.553Z,4.70
2023-02-25T16:33:22.135Z,4.60
2023-02-25T16:36:08.628Z,4.50
2023-02-25T16:38:42.812Z,4.50
2023-02-25T16:41:09.778Z,4.50
2023-02-25T16:43:39.088Z,4.60
2023-02-25T16:46:08.041Z,4.60
2023-02-25T16:48:58.885Z,4.70
2023-02-25T16:51:37.009Z,4.80
2023-02-25T16:54:39.444Z,4.80
2023-02-25T16:57:17.638Z,4.80
2023-02-25T16:59:44.319Z,4.80
2023-02-25T17:02:16.633Z,4.80
2023-02-25T17:04:51.422Z,4.80
2023-02-25T17:07:27.816Z,4.70
2023-02-25T17:10:00.674Z,4.70
2023-02-25T17:12:30.724Z,4.70
2023-02-25T17:14:59.436Z,4.70
2023-02-25T17:17:33.006Z,4.50
2023-02-25T17:20:04.487Z,4.20
2023-02-25T17:22:32.310Z,4.00
2023-02-25T17:25:00.134Z,3.70
2023-02-25T17:27:28.597Z,3.50
2023-02-25T17:29:55.460Z,3.30
2023-02-25T17:32:25.513Z,3.10
2023-02-25T17:34:55.041Z,2.90
2023-02-25T17:37:22.894Z,2.70
2023-02-25T17:39:50.051Z,2.50
2023-02-25T17:42:35.997Z,2.50
2023-02-25T17:45:08.376Z,2.60
2023-02-25T17:47:37.865Z,2.60
2023-02-25T17:50:31.476Z,2.60
2023-02-25T17:52:58.783Z,2.60
2023-02-25T17:55:28.574Z,2.50
2023-02-25T17:57:59.886Z,2.30
2023-02-25T18:00:33.093Z,2.20
2023-02-25T18:03:15.120Z,2.00
2023-02-25T18:06:00.691Z,1.90
2023-02-25T18:08:29.980Z,1.80
2023-02-25T18:11:20.726Z,1.80
2023-02-25T18:13:47.379Z,1.70
2023-02-25T18:16:28.954Z,1.60
2023-02-25T18:18:56.280Z,1.50
2023-02-25T18:21:23.361Z,1.50
2023-02-25T18:23:53.301Z,1.40
2023-02-25T18:26:21.752Z,1.30
2023-02-25T18:28:48.333Z,1.20
2023-02-25T18:31:16.710Z,1.10
2023-02-25T18:33:43.440Z,1.00
2023-02-25T18:36:16.742Z,0.90
2023-02-25T18:38:43.695Z,0.80
2023-02-25T18:41:11.859Z,0.80
2023-02-25T18:43:41.837Z,0.70
2023-02-25T18:46:09.223Z,0.60
2023-02-25T18:48:36.069Z,0.50
2023-02-25T18:51:05.649Z,0.50
2023-02-25T18:53:33.477Z,0.40
2023-02-25T18:56:00.052Z,0.40
2023-02-25T18:58:26.653Z,0.30
2023-02-25T19:00:56.676Z,0.20
2023-02-25T19:03:31.591Z,0.20
2023-02-25T19:05:58.250Z,0.10
2023-02-25T19:08:24.914Z,0.10
2023-02-25T19:10:53.245Z,0.00
2023-02-25T19:13:25.226Z,0.00
2023-02-25T19:15:51.797Z,-0.10
2023-02-25T19:18:18.424Z,-0.10
2023-02-25T19:20:45.092Z,-0.10
2023-02-25T19:23:13.867Z,-0.20
2023-02-25T19:25:42.376Z,-0.20
2023-02-25T19:28:10.148Z,-0.30
2023-02-25T19:30:39.893Z,-0.30
2023-02-25T19:33:07.476Z,-0.40
2023-02-25T19:35:36.244Z,-0.40
2023-02-25T19:38:03.355Z,-0.40
2023-02-25T19:40:30.069Z,-0.40
2023-02-25T19:42:57.906Z,-0.40
2023-02-25T19:45:25.550Z,-0.40
2023-02-25T19:47:53.167Z,-0.40
2023-02-25T19:50:21.301Z,-0.50
2023-02-25T19:52:47.923Z,-0.50
2023-02-25T19:55:14.967Z,-0.40
2023-02-25T19:57:42.023Z,-0.40
2023-02-25T20:00:13.967Z,-0.50
2023-02-25T20:02:40.929Z,-0.50
2023-02-25T20:05:08.483Z,-0.60
2023-02-25T20:07:35.610Z,-0.60
2023-02-25T20:10:02.246Z,-0.60
2023-02-25T20:12:28.805Z,-0.50
2023-02-25T20:14:55.469Z,-0.50
2023-02-25T20:17:22.055Z,-0.50
2023-02-25T20:19:48.622Z,-0.40
2023-02-25T20:22:15.251Z,-0.30
2023-02-25T20:24:41.794Z,-0.30
2023-02-25T20:27:08.342Z,-0.30
2023-02-25T20:29:34.918Z,-0.20
2023-02-25T20:32:02.759Z,-0.20
2023-02-25T20:34:29.538Z,-0.10
2023-02-25T20:37:04.308Z,-0.10
2023-02-25T20:39:36.980Z,0.00
2023-02-25T20:42:11.577Z,0.00
2023-02-25T20:44:38.697Z,0.00
2023-02-25T20:47:05.988Z,0.10
2023-02-25T20:49:33.236Z,0.10
2023-02-25T20:52:00.240Z,0.20
2023-02-25T20:54:26.819Z,0.20
2023-02-25T20:56:53.378Z,0.20
2023-02-25T20:59:19.955Z,0.20
2023-02-25T21:01:46.595Z,0.20
2023-02-25T21:04:13.226Z,0.20
2023-02-25T21:06:39.840Z,0.10
2023-02-25T21:09:07.195Z,0.10
2023-02-25T21:11:34.099Z,0.00
2023-02-25T21:14:00.680Z,-0.20
2023-02-25T21:16:27.621Z,-0.30
2023-02-25T21:18:54.614Z,-0.40
2023-02-25T21:21:21.795Z,-0.40
2023-02-25T21:23:49.188Z,-0.40
2023-02-25T21:26:16.023Z,-0.40
2023-02-25T21:28:42.667Z,-0.30
2023-02-25T21:31:11.808Z,-0.20
2023-02-25T21:33:39.342Z,0.00
2023-02-25T21:36:08.267Z,0.10
2023-02-25T21:38:35.668Z,0.20
2023-02-25T21:41:08.679Z,0.30
2023-02-25T21:43:35.597Z,0.30
2023-02-25T21:46:04.388Z,0.30
2023-02-25T21:48:32.337Z,0.30
2023-02-25T21:50:59.791Z,0.20
2023-02-25T21:53:27.505Z,0.10
2023-02-25T21:55:55.213Z,0.00
2023-02-25T21:58:22.043Z,-0.10
2023-02-25T22:00:48.892Z,-0.20
2023-02-25T22:03:15.738Z,-0.30
2023-02-25T22:05:46.566Z,-0.40
2023-02-25T22:08:14.210Z,-0.50
2023-02-25T22:10:40.978Z,-0.60
2023-02-25T22:13:08.306Z,-0.80
2023-02-25T22:15:35.327Z,-0.80
2023-02-25T22:18:02.130Z,-0.80
2023-02-25T22:20:28.725Z,-1.00
2023-02-25T22:22:57.641Z,-1.00
2023-02-25T22:25:24.197Z,-1.10
2023-02-25T22:27:51.960Z,-1.10
2023-02-25T22:30:18.837Z,-1.10
2023-02-25T22:32:45.384Z,-1.20
2023-02-25T22:35:11.961Z,-1.10
2023-02-25T22:37:38.567Z,-1.10
2023-02-25T22:40:06.062Z,-1.10
2023-02-25T22:42:32.631Z,-1.00
2023-02-25T22:44:59.187Z,-1.00
2023-02-25T22:47:25.811Z,-0.90
2023-02-25T22:49:52.703Z,-0.90
2023-02-25T22:52:19.275Z,-1.00
2023-02-25T22:54:46.142Z,-1.00
2023-02-25T22:57:12.684Z,-1.00
2023-02-25T22:59:39.240Z,-1.00
2023-02-25T23:02:05.795Z,-1.00
2023-02-25T23:04:32.781Z,-1.10
2023-02-25T23:07:00.837Z,-1.20
2023-02-25T23:09:27.570Z,-1.20
2023-02-25T23:11:55.121Z,-1.20
2023-02-25T23:14:21.697Z,-1.20
2023-02-25T23:16:49.827Z,-1.20
2023-02-25T23:19:19.567Z,-1.20
2023-02-25T23:21:46.266Z,-1.20
2023-02-25T23:24:16.205Z,-1.20
2023-02-25T23:26:44.542Z,-1.30
2023-02-25T23:29:12.618Z,-1.30
2023-02-25T23:31:46.853Z,-1.30
2023-02-25T23:34:17.825Z,-1.30
2023-02-25T23:36:47.221Z,-1.30
2023-02-25T23:39:14.726Z,-1.30
2023-02-25T23:41:41.996Z,-1.30
2023-02-25T23:44:09.436Z,-1.30
2023-02-25T23:46:37.101Z,-1.20
2023-02-25T23:49:07.007Z,-1.20
2023-02-25T23:51:34.357Z,-1.20
2023-02-25T23:54:03.794Z,-1.20
2023-02-25T23:56:31.923Z,-1.10
2023-02-25T23:58:59.259Z,-1.10
